sensor_id;sensor_type;location;lat;lon;timestamp;P1;durP1;ratioP1;P2;durP2;ratioP2
11348;SDS011;5729;43.570;27.826;2023-02-22T00:01:19;14.18;;;4.53;;
11348;SDS011;5729;43.570;27.826;2023-02-22T00:04:00;5.35;;;3.92;;
11348;SDS011;5729;43.570;27.826;2023-02-22T00:06:27;8.30;;;4.00;;
11348;SDS011;5729;43.570;27.826;2023-02-22T00:08:55;5.00;;;3.33;;
11348;SDS011;5729;43.570;27.826;2023-02-22T00:11:26;4.50;;;3.40;;
11348;SDS011;5729;43.570;27.826;2023-02-22T00:13:52;8.35;;;3.53;;
11348;SDS011;5729;43.570;27.826;2023-02-22T00:16:21;4.40;;;3.60;;
11348;SDS011;5729;43.570;27.826;2023-02-22T00:18:48;4.18;;;3.40;;
11348;SDS011;5729;43.570;27.826;2023-02-22T00:21:14;5.85;;;3.58;;
11348;SDS011;5729;43.570;27.826;2023-02-22T00:23:42;4.78;;;3.50;;
11348;SDS011;5729;43.570;27.826;2023-02-22T00:26:13;3.63;;;3.00;;
11348;SDS011;5729;43.570;27.826;2023-02-22T00:28:42;6.95;;;4.00;;
11348;SDS011;5729;43.570;27.826;2023-02-22T00:31:09;6.47;;;3.67;;
11348;SDS011;5729;43.570;27.826;2023-02-22T00:33:35;5.10;;;3.50;;
11348;SDS011;5729;43.570;27.826;2023-02-22T00:36:03;5.05;;;3.55;;
11348;SDS011;5729;43.570;27.826;2023-02-22T00:38:29;4.47;;;3.67;;
11348;SDS011;5729;43.570;27.826;2023-02-22T00:40:54;5.15;;;3.70;;
11348;SDS011;5729;43.570;27.826;2023-02-22T00:43:20;5.30;;;3.33;;
11348;SDS011;5729;43.570;27.826;2023-02-22T00:45:45;5.13;;;3.60;;
11348;SDS011;5729;43.570;27.826;2023-02-22T00:48:11;8.38;;;4.22;;
11348;SDS011;5729;43.570;27.826;2023-02-22T00:50:37;4.97;;;3.75;;
11348;SDS011;5729;43.570;27.826;2023-02-22T00:53:02;7.50;;;4.47;;
11348;SDS011;5729;43.570;27.826;2023-02-22T00:55:30;6.15;;;3.95;;
11348;SDS011;5729;43.570;27.826;2023-02-22T00:57:57;5.70;;;4.10;;
11348;SDS011;5729;43.570;27.826;2023-02-22T01:00:28;7.93;;;4.53;;
11348;SDS011;5729;43.570;27.826;2023-02-22T01:02:56;7.10;;;4.50;;
11348;SDS011;5729;43.570;27.826;2023-02-22T01:05:23;6.18;;;4.65;;
11348;SDS011;5729;43.570;27.826;2023-02-22T01:07:51;7.13;;;4.45;;
11348;SDS011;5729;43.570;27.826;2023-02-22T01:10:18;7.22;;;4.38;;
11348;SDS011;5729;43.570;27.826;2023-02-22T01:12:45;6.57;;;4.55;;
11348;SDS011;5729;43.570;27.826;2023-02-22T01:15:12;10.75;;;4.38;;
11348;SDS011;5729;43.570;27.826;2023-02-22T01:17:38;6.18;;;4.88;;
11348;SDS011;5729;43.570;27.826;2023-02-22T01:20:06;7.10;;;4.65;;
11348;SDS011;5729;43.570;27.826;2023-02-22T01:22:39;7.20;;;5.35;;
11348;SDS011;5729;43.570;27.826;2023-02-22T01:25:05;7.30;;;5.10;;
11348;SDS011;5729;43.570;27.826;2023-02-22T01:27:31;10.63;;;4.88;;
11348;SDS011;5729;43.570;27.826;2023-02-22T01:30:01;7.20;;;5.07;;
11348;SDS011;5729;43.570;27.826;2023-02-22T01:32:32;7.43;;;5.47;;
11348;SDS011;5729;43.570;27.826;2023-02-22T01:34:59;7.93;;;5.07;;
11348;SDS011;5729;43.570;27.826;2023-02-22T01:37:25;6.88;;;5.25;;
11348;SDS011;5729;43.570;27.826;2023-02-22T01:39:50;9.85;;;5.22;;
11348;SDS011;5729;43.570;27.826;2023-02-22T01:42:16;6.95;;;4.90;;
11348;SDS011;5729;43.570;27.826;2023-02-22T01:44:41;10.60;;;5.32;;
11348;SDS011;5729;43.570;27.826;2023-02-22T01:47:06;9.82;;;5.20;;
11348;SDS011;5729;43.570;27.826;2023-02-22T01:49:43;8.20;;;5.20;;
11348;SDS011;5729;43.570;27.826;2023-02-22T01:52:13;10.38;;;5.10;;
11348;SDS011;5729;43.570;27.826;2023-02-22T01:54:43;9.10;;;5.63;;
11348;SDS011;5729;43.570;27.826;2023-02-22T01:57:15;7.13;;;5.00;;
11348;SDS011;5729;43.570;27.826;2023-02-22T01:59:47;8.35;;;5.35;;
11348;SDS011;5729;43.570;27.826;2023-02-22T02:02:17;7.45;;;5.32;;
11348;SDS011;5729;43.570;27.826;2023-02-22T02:04:45;7.38;;;5.45;;
11348;SDS011;5729;43.570;27.826;2023-02-22T02:07:13;7.50;;;5.38;;
11348;SDS011;5729;43.570;27.826;2023-02-22T02:09:50;10.02;;;4.88;;
11348;SDS011;5729;43.570;27.826;2023-02-22T02:12:22;7.30;;;4.85;;
11348;SDS011;5729;43.570;27.826;2023-02-22T02:14:48;10.07;;;5.13;;
11348;SDS011;5729;43.570;27.826;2023-02-22T02:17:15;7.20;;;4.40;;
11348;SDS011;5729;43.570;27.826;2023-02-22T02:31:15;6.60;;;4.57;;
11348;SDS011;5729;43.570;27.826;2023-02-22T02:36:43;8.05;;;5.40;;
11348;SDS011;5729;43.570;27.826;2023-02-22T02:42:22;7.45;;;4.90;;
11348;SDS011;5729;43.570;27.826;2023-02-22T02:45:02;11.30;;;5.47;;
11348;SDS011;5729;43.570;27.826;2023-02-22T02:47:35;8.02;;;4.95;;
11348;SDS011;5729;43.570;27.826;2023-02-22T02:50:12;5.82;;;4.25;;
11348;SDS011;5729;43.570;27.826;2023-02-22T02:52:39;7.78;;;5.03;;
11348;SDS011;5729;43.570;27.826;2023-02-22T02:55:05;9.27;;;5.68;;
11348;SDS011;5729;43.570;27.826;2023-02-22T02:57:32;9.00;;;4.90;;
11348;SDS011;5729;43.570;27.826;2023-02-22T02:59:57;8.82;;;5.53;;
11348;SDS011;5729;43.570;27.826;2023-02-22T03:02:37;8.10;;;5.28;;
11348;SDS011;5729;43.570;27.826;2023-02-22T03:05:36;7.57;;;5.38;;
11348;SDS011;5729;43.570;27.826;2023-02-22T03:08:08;7.18;;;5.63;;
11348;SDS011;5729;43.570;27.826;2023-02-22T03:19:27;9.15;;;5.20;;
11348;SDS011;5729;43.570;27.826;2023-02-22T03:30:15;8.75;;;5.25;;
11348;SDS011;5729;43.570;27.826;2023-02-22T03:32:56;8.73;;;5.28;;
11348;SDS011;5729;43.570;27.826;2023-02-22T03:35:28;7.68;;;5.28;;
11348;SDS011;5729;43.570;27.826;2023-02-22T03:38:00;6.68;;;5.28;;
11348;SDS011;5729;43.570;27.826;2023-02-22T03:40:32;6.55;;;5.28;;
11348;SDS011;5729;43.570;27.826;2023-02-22T03:43:12;11.30;;;5.38;;
11348;SDS011;5729;43.570;27.826;2023-02-22T03:45:41;10.65;;;5.45;;
11348;SDS011;5729;43.570;27.826;2023-02-22T03:48:22;6.85;;;4.97;;
11348;SDS011;5729;43.570;27.826;2023-02-22T03:50:55;5.97;;;5.03;;
11348;SDS011;5729;43.570;27.826;2023-02-22T03:53:22;6.97;;;5.05;;
11348;SDS011;5729;43.570;27.826;2023-02-22T03:55:49;7.45;;;5.72;;
11348;SDS011;5729;43.570;27.826;2023-02-22T03:58:17;8.98;;;5.85;;
11348;SDS011;5729;43.570;27.826;2023-02-22T04:00:45;6.68;;;5.20;;
11348;SDS011;5729;43.570;27.826;2023-02-22T04:03:11;6.85;;;5.10;;
11348;SDS011;5729;43.570;27.826;2023-02-22T04:05:37;9.30;;;5.88;;
11348;SDS011;5729;43.570;27.826;2023-02-22T04:08:02;8.48;;;5.93;;
11348;SDS011;5729;43.570;27.826;2023-02-22T04:10:30;12.40;;;5.47;;
11348;SDS011;5729;43.570;27.826;2023-02-22T04:12:57;9.05;;;5.30;;
11348;SDS011;5729;43.570;27.826;2023-02-22T04:15:22;8.65;;;5.68;;
11348;SDS011;5729;43.570;27.826;2023-02-22T04:17:48;8.10;;;6.18;;
11348;SDS011;5729;43.570;27.826;2023-02-22T04:20:16;8.25;;;5.55;;
11348;SDS011;5729;43.570;27.826;2023-02-22T04:22:49;10.48;;;5.68;;
11348;SDS011;5729;43.570;27.826;2023-02-22T04:25:16;6.75;;;5.60;;
11348;SDS011;5729;43.570;27.826;2023-02-22T04:27:42;15.13;;;7.65;;
11348;SDS011;5729;43.570;27.826;2023-02-22T04:30:08;12.73;;;7.55;;
11348;SDS011;5729;43.570;27.826;2023-02-22T04:32:35;13.20;;;7.68;;
11348;SDS011;5729;43.570;27.826;2023-02-22T04:35:02;11.70;;;7.43;;
11348;SDS011;5729;43.570;27.826;2023-02-22T04:37:28;11.43;;;6.38;;
11348;SDS011;5729;43.570;27.826;2023-02-22T04:39:53;12.43;;;6.90;;
11348;SDS011;5729;43.570;27.826;2023-02-22T04:42:19;12.68;;;6.68;;
11348;SDS011;5729;43.570;27.826;2023-02-22T04:44:44;13.07;;;6.63;;
11348;SDS011;5729;43.570;27.826;2023-02-22T04:47:10;24.23;;;8.30;;
11348;SDS011;5729;43.570;27.826;2023-02-22T04:49:35;21.00;;;7.30;;
11348;SDS011;5729;43.570;27.826;2023-02-22T04:52:00;22.77;;;7.40;;
11348;SDS011;5729;43.570;27.826;2023-02-22T04:54:26;14.20;;;6.97;;
11348;SDS011;5729;43.570;27.826;2023-02-22T04:56:51;13.32;;;7.35;;
11348;SDS011;5729;43.570;27.826;2023-02-22T04:59:17;13.77;;;7.18;;
11348;SDS011;5729;43.570;27.826;2023-02-22T05:01:43;11.27;;;6.43;;
11348;SDS011;5729;43.570;27.826;2023-02-22T05:04:09;13.27;;;6.47;;
11348;SDS011;5729;43.570;27.826;2023-02-22T05:06:35;9.27;;;6.50;;
11348;SDS011;5729;43.570;27.826;2023-02-22T05:09:00;16.98;;;7.60;;
11348;SDS011;5729;43.570;27.826;2023-02-22T05:11:26;13.85;;;7.32;;
11348;SDS011;5729;43.570;27.826;2023-02-22T05:13:52;14.07;;;7.82;;
11348;SDS011;5729;43.570;27.826;2023-02-22T05:16:17;12.55;;;7.60;;
11348;SDS011;5729;43.570;27.826;2023-02-22T05:18:43;12.60;;;8.30;;
11348;SDS011;5729;43.570;27.826;2023-02-22T05:21:09;18.95;;;9.35;;
11348;SDS011;5729;43.570;27.826;2023-02-22T05:23:34;25.90;;;9.30;;
11348;SDS011;5729;43.570;27.826;2023-02-22T05:26:00;25.75;;;8.63;;
11348;SDS011;5729;43.570;27.826;2023-02-22T05:28:25;19.13;;;8.32;;
11348;SDS011;5729;43.570;27.826;2023-02-22T05:30:51;18.27;;;8.95;;
11348;SDS011;5729;43.570;27.826;2023-02-22T05:33:17;19.17;;;9.43;;
11348;SDS011;5729;43.570;27.826;2023-02-22T05:35:42;16.23;;;8.05;;
11348;SDS011;5729;43.570;27.826;2023-02-22T05:38:09;19.23;;;9.20;;
11348;SDS011;5729;43.570;27.826;2023-02-22T05:40:38;18.30;;;8.75;;
11348;SDS011;5729;43.570;27.826;2023-02-22T05:43:04;19.77;;;9.07;;
11348;SDS011;5729;43.570;27.826;2023-02-22T05:45:30;15.73;;;8.93;;
11348;SDS011;5729;43.570;27.826;2023-02-22T05:47:55;13.80;;;8.45;;
11348;SDS011;5729;43.570;27.826;2023-02-22T05:50:21;18.95;;;10.05;;
11348;SDS011;5729;43.570;27.826;2023-02-22T05:52:47;25.08;;;9.82;;
11348;SDS011;5729;43.570;27.826;2023-02-22T05:55:13;22.83;;;10.23;;
11348;SDS011;5729;43.570;27.826;2023-02-22T05:57:41;19.30;;;9.63;;
11348;SDS011;5729;43.570;27.826;2023-02-22T06:00:07;21.80;;;10.02;;
11348;SDS011;5729;43.570;27.826;2023-02-22T06:02:33;24.98;;;9.20;;
11348;SDS011;5729;43.570;27.826;2023-02-22T06:04:59;19.95;;;10.30;;
11348;SDS011;5729;43.570;27.826;2023-02-22T06:07:24;17.58;;;9.93;;
11348;SDS011;5729;43.570;27.826;2023-02-22T06:09:50;25.02;;;10.60;;
11348;SDS011;5729;43.570;27.826;2023-02-22T06:12:16;21.45;;;11.10;;
11348;SDS011;5729;43.570;27.826;2023-02-22T06:14:41;43.60;;;17.42;;
11348;SDS011;5729;43.570;27.826;2023-02-22T06:17:10;81.82;;;26.77;;
11348;SDS011;5729;43.570;27.826;2023-02-22T06:19:36;66.22;;;34.22;;
11348;SDS011;5729;43.570;27.826;2023-02-22T06:22:04;62.90;;;31.83;;
11348;SDS011;5729;43.570;27.826;2023-02-22T06:24:30;45.60;;;25.67;;
11348;SDS011;5729;43.570;27.826;2023-02-22T06:26:56;39.15;;;24.48;;
11348;SDS011;5729;43.570;27.826;2023-02-22T06:29:23;49.13;;;24.27;;
11348;SDS011;5729;43.570;27.826;2023-02-22T06:31:49;44.63;;;25.85;;
11348;SDS011;5729;43.570;27.826;2023-02-22T06:34:15;54.72;;;27.02;;
11348;SDS011;5729;43.570;27.826;2023-02-22T06:36:41;45.75;;;23.23;;
11348;SDS011;5729;43.570;27.826;2023-02-22T06:39:07;58.72;;;33.15;;
11348;SDS011;5729;43.570;27.826;2023-02-22T06:41:37;84.85;;;40.08;;
11348;SDS011;5729;43.570;27.826;2023-02-22T06:44:03;67.38;;;29.95;;
11348;SDS011;5729;43.570;27.826;2023-02-22T06:46:29;69.95;;;36.85;;
11348;SDS011;5729;43.570;27.826;2023-02-22T06:48:55;67.88;;;32.85;;
11348;SDS011;5729;43.570;27.826;2023-02-22T06:51:21;51.95;;;24.80;;
11348;SDS011;5729;43.570;27.826;2023-02-22T06:53:47;50.33;;;25.35;;
11348;SDS011;5729;43.570;27.826;2023-02-22T06:56:12;72.32;;;27.85;;
11348;SDS011;5729;43.570;27.826;2023-02-22T06:58:38;53.42;;;24.83;;
11348;SDS011;5729;43.570;27.826;2023-02-22T07:01:03;84.00;;;47.78;;
11348;SDS011;5729;43.570;27.826;2023-02-22T07:03:31;59.75;;;27.33;;
11348;SDS011;5729;43.570;27.826;2023-02-22T07:05:57;47.95;;;23.52;;
11348;SDS011;5729;43.570;27.826;2023-02-22T07:08:23;52.90;;;29.40;;
11348;SDS011;5729;43.570;27.826;2023-02-22T07:10:48;33.10;;;20.55;;
11348;SDS011;5729;43.570;27.826;2023-02-22T07:13:14;38.40;;;18.10;;
11348;SDS011;5729;43.570;27.826;2023-02-22T07:15:40;37.13;;;19.83;;
11348;SDS011;5729;43.570;27.826;2023-02-22T07:18:06;53.10;;;25.50;;
11348;SDS011;5729;43.570;27.826;2023-02-22T07:20:32;45.03;;;24.35;;
11348;SDS011;5729;43.570;27.826;2023-02-22T07:22:57;40.90;;;25.52;;
11348;SDS011;5729;43.570;27.826;2023-02-22T07:25:23;50.10;;;26.17;;
11348;SDS011;5729;43.570;27.826;2023-02-22T07:27:49;51.30;;;26.75;;
11348;SDS011;5729;43.570;27.826;2023-02-22T07:30:23;42.60;;;25.48;;
11348;SDS011;5729;43.570;27.826;2023-02-22T07:32:54;43.03;;;26.45;;
11348;SDS011;5729;43.570;27.826;2023-02-22T07:35:22;43.30;;;26.38;;
11348;SDS011;5729;43.570;27.826;2023-02-22T07:37:49;42.13;;;22.20;;
11348;SDS011;5729;43.570;27.826;2023-02-22T07:40:16;26.52;;;17.25;;
11348;SDS011;5729;43.570;27.826;2023-02-22T07:45:25;23.90;;;11.75;;
11348;SDS011;5729;43.570;27.826;2023-02-22T07:48:00;21.05;;;11.30;;
11348;SDS011;5729;43.570;27.826;2023-02-22T07:50:29;16.98;;;9.88;;
11348;SDS011;5729;43.570;27.826;2023-02-22T07:52:56;16.15;;;9.68;;
11348;SDS011;5729;43.570;27.826;2023-02-22T07:55:24;15.00;;;8.98;;
11348;SDS011;5729;43.570;27.826;2023-02-22T07:57:52;18.17;;;9.60;;
11348;SDS011;5729;43.570;27.826;2023-02-22T08:00:23;14.52;;;8.48;;
11348;SDS011;5729;43.570;27.826;2023-02-22T08:02:52;21.90;;;9.93;;
11348;SDS011;5729;43.570;27.826;2023-02-22T08:05:18;20.40;;;10.23;;
11348;SDS011;5729;43.570;27.826;2023-02-22T08:07:44;15.55;;;9.10;;
11348;SDS011;5729;43.570;27.826;2023-02-22T08:10:12;13.25;;;8.30;;
11348;SDS011;5729;43.570;27.826;2023-02-22T08:12:39;12.85;;;7.50;;
11348;SDS011;5729;43.570;27.826;2023-02-22T08:15:06;12.00;;;7.18;;
11348;SDS011;5729;43.570;27.826;2023-02-22T08:17:33;15.88;;;7.55;;
11348;SDS011;5729;43.570;27.826;2023-02-22T08:19:59;16.25;;;8.13;;
11348;SDS011;5729;43.570;27.826;2023-02-22T08:22:24;13.60;;;8.45;;
11348;SDS011;5729;43.570;27.826;2023-02-22T08:24:54;9.95;;;7.45;;
11348;SDS011;5729;43.570;27.826;2023-02-22T08:27:23;9.57;;;6.55;;
11348;SDS011;5729;43.570;27.826;2023-02-22T08:29:50;8.88;;;6.43;;
11348;SDS011;5729;43.570;27.826;2023-02-22T08:32:16;10.70;;;6.75;;
11348;SDS011;5729;43.570;27.826;2023-02-22T08:34:41;10.15;;;7.13;;
11348;SDS011;5729;43.570;27.826;2023-02-22T08:37:07;11.57;;;6.28;;
11348;SDS011;5729;43.570;27.826;2023-02-22T08:39:33;11.13;;;7.10;;
11348;SDS011;5729;43.570;27.826;2023-02-22T08:41:58;9.63;;;5.93;;
11348;SDS011;5729;43.570;27.826;2023-02-22T08:44:23;8.02;;;6.25;;
11348;SDS011;5729;43.570;27.826;2023-02-22T08:46:49;9.25;;;6.15;;
11348;SDS011;5729;43.570;27.826;2023-02-22T08:49:15;10.65;;;7.03;;
11348;SDS011;5729;43.570;27.826;2023-02-22T08:51:41;8.05;;;6.50;;
11348;SDS011;5729;43.570;27.826;2023-02-22T08:54:06;7.38;;;6.15;;
11348;SDS011;5729;43.570;27.826;2023-02-22T08:56:32;7.57;;;6.40;;
11348;SDS011;5729;43.570;27.826;2023-02-22T08:58:58;7.72;;;5.65;;
11348;SDS011;5729;43.570;27.826;2023-02-22T09:01:23;10.90;;;6.68;;
11348;SDS011;5729;43.570;27.826;2023-02-22T09:03:49;11.25;;;7.25;;
11348;SDS011;5729;43.570;27.826;2023-02-22T09:06:15;12.68;;;6.93;;
11348;SDS011;5729;43.570;27.826;2023-02-22T09:08:41;12.32;;;6.22;;
11348;SDS011;5729;43.570;27.826;2023-02-22T09:11:07;8.60;;;6.47;;
11348;SDS011;5729;43.570;27.826;2023-02-22T09:13:32;8.77;;;6.20;;
11348;SDS011;5729;43.570;27.826;2023-02-22T09:15:58;9.30;;;6.70;;
11348;SDS011;5729;43.570;27.826;2023-02-22T09:18:23;10.27;;;6.25;;
11348;SDS011;5729;43.570;27.826;2023-02-22T09:20:52;31.33;;;13.82;;
11348;SDS011;5729;43.570;27.826;2023-02-22T09:23:17;11.15;;;7.00;;
11348;SDS011;5729;43.570;27.826;2023-02-22T09:25:45;9.15;;;6.20;;
11348;SDS011;5729;43.570;27.826;2023-02-22T09:28:13;8.85;;;6.53;;
11348;SDS011;5729;43.570;27.826;2023-02-22T09:30:38;14.50;;;7.05;;
11348;SDS011;5729;43.570;27.826;2023-02-22T09:33:05;24.30;;;8.25;;
11348;SDS011;5729;43.570;27.826;2023-02-22T09:35:34;14.57;;;7.78;;
11348;SDS011;5729;43.570;27.826;2023-02-22T09:38:00;10.00;;;7.20;;
11348;SDS011;5729;43.570;27.826;2023-02-22T09:40:27;13.02;;;7.63;;
11348;SDS011;5729;43.570;27.826;2023-02-22T09:45:29;13.55;;;7.10;;
11348;SDS011;5729;43.570;27.826;2023-02-22T09:48:01;9.98;;;6.65;;
11348;SDS011;5729;43.570;27.826;2023-02-22T09:50:39;19.00;;;9.80;;
11348;SDS011;5729;43.570;27.826;2023-02-22T09:55:55;17.55;;;6.78;;
11348;SDS011;5729;43.570;27.826;2023-02-22T09:58:30;17.05;;;8.85;;
11348;SDS011;5729;43.570;27.826;2023-02-22T10:01:44;11.48;;;7.35;;
11348;SDS011;5729;43.570;27.826;2023-02-22T10:06:32;11.23;;;7.50;;
11348;SDS011;5729;43.570;27.826;2023-02-22T10:09:00;10.98;;;6.75;;
11348;SDS011;5729;43.570;27.826;2023-02-22T10:17:04;16.40;;;7.90;;
11348;SDS011;5729;43.570;27.826;2023-02-22T10:25:22;15.15;;;8.13;;
11348;SDS011;5729;43.570;27.826;2023-02-22T10:27:54;11.35;;;7.10;;
11348;SDS011;5729;43.570;27.826;2023-02-22T10:35:28;8.80;;;6.15;;
11348;SDS011;5729;43.570;27.826;2023-02-22T10:38:01;9.93;;;6.60;;
11348;SDS011;5729;43.570;27.826;2023-02-22T10:43:38;8.55;;;6.82;;
11348;SDS011;5729;43.570;27.826;2023-02-22T10:46:06;13.93;;;7.07;;
11348;SDS011;5729;43.570;27.826;2023-02-22T10:48:37;10.27;;;6.50;;
11348;SDS011;5729;43.570;27.826;2023-02-22T10:51:05;12.43;;;7.13;;
11348;SDS011;5729;43.570;27.826;2023-02-22T10:53:33;13.35;;;6.32;;
11348;SDS011;5729;43.570;27.826;2023-02-22T10:58:51;14.20;;;6.82;;
11348;SDS011;5729;43.570;27.826;2023-02-22T11:06:41;14.43;;;6.63;;
11348;SDS011;5729;43.570;27.826;2023-02-22T11:09:16;21.77;;;6.88;;
11348;SDS011;5729;43.570;27.826;2023-02-22T11:11:44;13.23;;;6.25;;
11348;SDS011;5729;43.570;27.826;2023-02-22T11:14:12;13.88;;;5.97;;
11348;SDS011;5729;43.570;27.826;2023-02-22T11:16:49;11.27;;;6.53;;
11348;SDS011;5729;43.570;27.826;2023-02-22T11:19:18;9.35;;;5.50;;
11348;SDS011;5729;43.570;27.826;2023-02-22T11:21:48;6.25;;;5.38;;
11348;SDS011;5729;43.570;27.826;2023-02-22T11:24:17;8.60;;;5.43;;
11348;SDS011;5729;43.570;27.826;2023-02-22T11:26:48;8.55;;;6.75;;
11348;SDS011;5729;43.570;27.826;2023-02-22T11:29:30;15.55;;;8.88;;
11348;SDS011;5729;43.570;27.826;2023-02-22T11:32:01;17.52;;;9.95;;
11348;SDS011;5729;43.570;27.826;2023-02-22T11:34:36;19.58;;;9.48;;
11348;SDS011;5729;43.570;27.826;2023-02-22T11:40:38;22.10;;;10.27;;
11348;SDS011;5729;43.570;27.826;2023-02-22T11:42:47;9.85;;;7.68;;
11348;SDS011;5729;43.570;27.826;2023-02-22T11:45:19;23.65;;;8.70;;
11348;SDS011;5729;43.570;27.826;2023-02-22T11:47:56;12.60;;;7.15;;
11348;SDS011;5729;43.570;27.826;2023-02-22T11:50:28;18.05;;;8.75;;
11348;SDS011;5729;43.570;27.826;2023-02-22T11:53:06;14.52;;;8.60;;
11348;SDS011;5729;43.570;27.826;2023-02-22T11:58:47;14.48;;;7.90;;
11348;SDS011;5729;43.570;27.826;2023-02-22T12:06:43;7.78;;;4.20;;
11348;SDS011;5729;43.570;27.826;2023-02-22T12:14:43;5.82;;;3.67;;
11348;SDS011;5729;43.570;27.826;2023-02-22T12:20:20;6.85;;;4.05;;
11348;SDS011;5729;43.570;27.826;2023-02-22T12:26:34;7.70;;;4.53;;
11348;SDS011;5729;43.570;27.826;2023-02-22T12:29:05;4.28;;;2.75;;
11348;SDS011;5729;43.570;27.826;2023-02-22T12:31:38;8.07;;;2.92;;
11348;SDS011;5729;43.570;27.826;2023-02-22T12:34:30;10.75;;;4.03;;
11348;SDS011;5729;43.570;27.826;2023-02-22T12:39:51;5.60;;;2.50;;
11348;SDS011;5729;43.570;27.826;2023-02-22T12:45:31;6.18;;;3.05;;
11348;SDS011;5729;43.570;27.826;2023-02-22T12:48:06;3.08;;;2.00;;
11348;SDS011;5729;43.570;27.826;2023-02-22T12:50:46;4.75;;;3.38;;
11348;SDS011;5729;43.570;27.826;2023-02-22T12:53:34;4.53;;;2.28;;
11348;SDS011;5729;43.570;27.826;2023-02-22T12:58:57;2.88;;;2.08;;
11348;SDS011;5729;43.570;27.826;2023-02-22T13:01:40;10.35;;;2.50;;
11348;SDS011;5729;43.570;27.826;2023-02-22T13:04:10;5.13;;;2.42;;
11348;SDS011;5729;43.570;27.826;2023-02-22T13:07:20;3.63;;;2.20;;
11348;SDS011;5729;43.570;27.826;2023-02-22T13:14:58;11.00;;;4.75;;
11348;SDS011;5729;43.570;27.826;2023-02-22T13:20:36;12.25;;;5.57;;
11348;SDS011;5729;43.570;27.826;2023-02-22T13:33:42;4.95;;;2.35;;
11348;SDS011;5729;43.570;27.826;2023-02-22T13:42:10;2.78;;;1.80;;
11348;SDS011;5729;43.570;27.826;2023-02-22T13:44:53;10.95;;;2.08;;
11348;SDS011;5729;43.570;27.826;2023-02-22T13:47:57;2.85;;;1.85;;
11348;SDS011;5729;43.570;27.826;2023-02-22T13:53:41;3.45;;;1.70;;
11348;SDS011;5729;43.570;27.826;2023-02-22T13:56:20;5.35;;;2.47;;
11348;SDS011;5729;43.570;27.826;2023-02-22T13:58:48;7.13;;;3.10;;
11348;SDS011;5729;43.570;27.826;2023-02-22T14:06:52;3.80;;;1.70;;
11348;SDS011;5729;43.570;27.826;2023-02-22T14:17:42;6.65;;;1.85;;
11348;SDS011;5729;43.570;27.826;2023-02-22T14:22:44;5.70;;;2.40;;
11348;SDS011;5729;43.570;27.826;2023-02-22T14:31:04;6.97;;;3.00;;
11348;SDS011;5729;43.570;27.826;2023-02-22T14:39:06;5.50;;;2.40;;
11348;SDS011;5729;43.570;27.826;2023-02-22T14:41:37;5.70;;;2.40;;
11348;SDS011;5729;43.570;27.826;2023-02-22T14:44:08;5.93;;;2.50;;
11348;SDS011;5729;43.570;27.826;2023-02-22T14:46:37;17.65;;;6.70;;
11348;SDS011;5729;43.570;27.826;2023-02-22T14:49:05;7.03;;;3.75;;
11348;SDS011;5729;43.570;27.826;2023-02-22T14:51:43;9.93;;;2.78;;
11348;SDS011;5729;43.570;27.826;2023-02-22T14:54:21;21.15;;;11.90;;
11348;SDS011;5729;43.570;27.826;2023-02-22T14:57:08;11.27;;;6.28;;
11348;SDS011;5729;43.570;27.826;2023-02-22T15:02:44;24.90;;;10.45;;
11348;SDS011;5729;43.570;27.826;2023-02-22T15:05:12;47.08;;;20.95;;
11348;SDS011;5729;43.570;27.826;2023-02-22T15:07:39;22.88;;;11.52;;
11348;SDS011;5729;43.570;27.826;2023-02-22T15:12:51;20.05;;;10.23;;
11348;SDS011;5729;43.570;27.826;2023-02-22T15:15:20;23.00;;;11.00;;
11348;SDS011;5729;43.570;27.826;2023-02-22T15:17:53;67.35;;;33.38;;
11348;SDS011;5729;43.570;27.826;2023-02-22T15:20:20;92.38;;;52.15;;
11348;SDS011;5729;43.570;27.826;2023-02-22T15:22:49;10.20;;;6.97;;
11348;SDS011;5729;43.570;27.826;2023-02-22T15:25:15;49.25;;;24.60;;
11348;SDS011;5729;43.570;27.826;2023-02-22T15:27:49;24.30;;;11.70;;
11348;SDS011;5729;43.570;27.826;2023-02-22T15:30:17;28.90;;;15.77;;
11348;SDS011;5729;43.570;27.826;2023-02-22T15:32:44;33.35;;;15.50;;
11348;SDS011;5729;43.570;27.826;2023-02-22T15:37:44;20.10;;;9.68;;
11348;SDS011;5729;43.570;27.826;2023-02-22T15:40:15;18.77;;;9.80;;
11348;SDS011;5729;43.570;27.826;2023-02-22T15:42:50;8.48;;;3.92;;
11348;SDS011;5729;43.570;27.826;2023-02-22T15:45:19;8.98;;;6.00;;
11348;SDS011;5729;43.570;27.826;2023-02-22T15:47:47;12.93;;;5.72;;
11348;SDS011;5729;43.570;27.826;2023-02-22T15:55:36;11.07;;;5.95;;
11348;SDS011;5729;43.570;27.826;2023-02-22T16:00:46;10.20;;;6.65;;
11348;SDS011;5729;43.570;27.826;2023-02-22T16:03:16;18.55;;;10.55;;
11348;SDS011;5729;43.570;27.826;2023-02-22T16:05:52;21.55;;;10.43;;
11348;SDS011;5729;43.570;27.826;2023-02-22T16:11:08;5.97;;;3.78;;
11348;SDS011;5729;43.570;27.826;2023-02-22T16:13:39;8.95;;;4.90;;
11348;SDS011;5729;43.570;27.826;2023-02-22T16:18:50;19.88;;;10.15;;
11348;SDS011;5729;43.570;27.826;2023-02-22T16:21:20;23.75;;;9.55;;
11348;SDS011;5729;43.570;27.826;2023-02-22T16:23:47;9.65;;;5.07;;
11348;SDS011;5729;43.570;27.826;2023-02-22T16:28:59;9.15;;;4.68;;
11348;SDS011;5729;43.570;27.826;2023-02-22T16:31:28;13.73;;;6.32;;
11348;SDS011;5729;43.570;27.826;2023-02-22T16:33:58;9.00;;;4.53;;
11348;SDS011;5729;43.570;27.826;2023-02-22T16:36:35;12.45;;;4.93;;
11348;SDS011;5729;43.570;27.826;2023-02-22T16:39:04;10.00;;;5.85;;
11348;SDS011;5729;43.570;27.826;2023-02-22T16:41:31;21.05;;;12.57;;
11348;SDS011;5729;43.570;27.826;2023-02-22T16:43:57;17.95;;;10.20;;
11348;SDS011;5729;43.570;27.826;2023-02-22T16:46:22;15.35;;;7.20;;
11348;SDS011;5729;43.570;27.826;2023-02-22T16:48:47;8.18;;;5.35;;
11348;SDS011;5729;43.570;27.826;2023-02-22T16:51:23;13.75;;;4.93;;
11348;SDS011;5729;43.570;27.826;2023-02-22T16:53:54;7.45;;;4.40;;
11348;SDS011;5729;43.570;27.826;2023-02-22T16:56:22;10.77;;;4.70;;
11348;SDS011;5729;43.570;27.826;2023-02-22T16:58:53;8.95;;;5.40;;
11348;SDS011;5729;43.570;27.826;2023-02-22T17:01:19;14.70;;;5.93;;
11348;SDS011;5729;43.570;27.826;2023-02-22T17:03:47;11.50;;;6.03;;
11348;SDS011;5729;43.570;27.826;2023-02-22T17:06:14;22.83;;;11.10;;
11348;SDS011;5729;43.570;27.826;2023-02-22T17:08:40;12.50;;;6.05;;
11348;SDS011;5729;43.570;27.826;2023-02-22T17:11:06;14.52;;;5.60;;
11348;SDS011;5729;43.570;27.826;2023-02-22T17:13:35;9.20;;;5.57;;
11348;SDS011;5729;43.570;27.826;2023-02-22T17:16:01;28.58;;;6.88;;
11348;SDS011;5729;43.570;27.826;2023-02-22T17:18:27;15.32;;;7.38;;
11348;SDS011;5729;43.570;27.826;2023-02-22T17:20:58;12.13;;;5.53;;
11348;SDS011;5729;43.570;27.826;2023-02-22T17:23:25;9.40;;;5.57;;
11348;SDS011;5729;43.570;27.826;2023-02-22T17:28:24;10.98;;;5.88;;
11348;SDS011;5729;43.570;27.826;2023-02-22T17:30:51;8.55;;;4.63;;
11348;SDS011;5729;43.570;27.826;2023-02-22T17:33:19;16.20;;;6.30;;
11348;SDS011;5729;43.570;27.826;2023-02-22T17:35:50;26.25;;;11.23;;
11348;SDS011;5729;43.570;27.826;2023-02-22T17:38:17;11.57;;;6.10;;
11348;SDS011;5729;43.570;27.826;2023-02-22T17:40:43;13.20;;;5.85;;
11348;SDS011;5729;43.570;27.826;2023-02-22T17:43:17;9.75;;;4.38;;
11348;SDS011;5729;43.570;27.826;2023-02-22T17:45:46;7.07;;;3.63;;
11348;SDS011;5729;43.570;27.826;2023-02-22T17:48:13;7.90;;;4.15;;
11348;SDS011;5729;43.570;27.826;2023-02-22T17:50:41;9.00;;;4.60;;
11348;SDS011;5729;43.570;27.826;2023-02-22T17:53:08;11.00;;;3.95;;
11348;SDS011;5729;43.570;27.826;2023-02-22T17:55:35;11.60;;;3.78;;
11348;SDS011;5729;43.570;27.826;2023-02-22T17:58:03;11.35;;;3.85;;